Time;durP1;ratioP1;P1;durP2;ratioP2;P2;SDS_P1;SDS_P2;PMS_P1;PMS_P2;Temp;Humidity;BMP_temperature;BMP_pressure;BME280_temperature;BME280_humidity;BME280_pressure;Samples;Min_cycle;Max_cycle;Signal;HPM_P1;HPM_P2
2019/06/15 00:01:47;;;;;;;13.4;5.4;;;;;;;21.92;62.23535;934.5948;;;;
2019/06/15 00:04:12;;;;;;;16.7;5.7;;;;;;;21.78;62.25;934.7234;;;;
2019/06/15 00:06:45;;;;;;;17.1;5.7;;;;;;;21.29;64.04199;934.7377;;;;
2019/06/15 00:09:17;;;;;;;13.4;5.7;;;;;;;21.6;62.85742;934.624;;;;
2019/06/15 00:11:43;;;;;;;14.1;5.3;;;;;;;21.07;63.18066;934.5952;;;;
2019/06/15 00:14:16;;;;;;;12.4;5.3;;;;;;;20.76;64.21094;934.5705;;;;
2019/06/15 00:16:46;;;;;;;14.6;5.4;;;;;;;20.9;63.86914;934.4775;;;;
2019/06/15 00:19:21;;;;;;;17.5;5.9;;;;;;;21.15;63.11035;934.2605;;;;
2019/06/15 00:21:56;;;;;;;14.8;5.6;;;;;;;21.07;63.53125;934.2674;;;;
2019/06/15 00:24:26;;;;;;;14.7;5.7;;;;;;;21.04;63.5498;934.233;;;;
2019/06/15 00:26:50;;;;;;;13.2;5.9;;;;;;;21.27;63.00977;934.0659;;;;
2019/06/15 00:29:20;;;;;;;15.5;5.8;;;;;;;21.29;62.38086;934.0198;;;;
2019/06/15 00:31:45;;;;;;;14.7;5.8;;;;;;;21.31;63.22559;933.892;;;;
2019/06/15 00:34:17;;;;;;;13.7;5.9;;;;;;;21.29;62.39258;933.8085;;;;
2019/06/15 00:37:02;;;;;;;16.8;5.9;;;;;;;20.74;64.15137;933.8605;;;;
2019/06/15 00:39:25;;;;;;;15.2;6.3;;;;;;;20.77;63.74609;933.6361;;;;
2019/06/15 00:41:53;;;;;;;14.6;5.6;;;;;;;20.96;62.95313;933.5104;;;;
2019/06/15 00:44:21;;;;;;;13;5.5;;;;;;;20.96;63.05957;933.4445;;;;
2019/06/15 00:46:52;;;;;;;13.5;5.4;;;;;;;20.97;62.26563;933.3915;;;;
2019/06/15 00:49:35;;;;;;;14.1;5.4;;;;;;;21.05;61.92676;933.4067;;;;
2019/06/15 00:52:09;;;;;;;14.8;5.8;;;;;;;21.1;61.79297;933.6412;;;;
2019/06/15 00:54:41;;;;;;;17.6;5.7;;;;;;;20.88;62.32324;933.616;;;;
2019/06/15 00:57:15;;;;;;;13.8;5.2;;;;;;;21.05;61.36426;933.636;;;;
2019/06/15 00:59:51;;;;;;;13.9;5.6;;;;;;;20.91;61.09961;933.6555;;;;
2019/06/15 01:02:26;;;;;;;14.4;5.8;;;;;;;20.59;62.18945;933.618;;;;
2019/06/15 01:05:01;;;;;;;16.6;5.7;;;;;;;20.69;62.20215;933.4629;;;;
2019/06/15 01:07:34;;;;;;;15.6;5.6;;;;;;;20.7;62.34473;933.4478;;;;
2019/06/15 01:09:57;;;;;;;14.7;5.4;;;;;;;20.8;61.40039;933.519;;;;
2019/06/15 01:12:25;;;;;;;14.2;5.7;;;;;;;20.8;61.63379;933.6486;;;;
2019/06/15 01:14:53;;;;;;;18.1;5.4;;;;;;;20.9;60.50195;933.6267;;;;
2019/06/15 01:17:24;;;;;;;18.2;5;;;;;;;20.58;60.16602;933.6074;;;;
2019/06/15 01:19:51;;;;;;;13.3;5.1;;;;;;;19.99;61.45215;933.6802;;;;
2019/06/15 01:22:17;;;;;;;15.1;5.4;;;;;;;20.07;61.13574;933.7383;;;;
2019/06/15 01:24:54;;;;;;;15.7;4.9;;;;;;;20.18;61.30176;933.6806;;;;
2019/06/15 01:27:24;;;;;;;17.7;5.6;;;;;;;20.35;60.41504;933.6004;;;;
2019/06/15 01:29:53;;;;;;;13.4;5.7;;;;;;;20.4;60.09473;933.6198;;;;
2019/06/15 01:32:21;;;;;;;16.3;5.6;;;;;;;20.39;60.5498;933.4606;;;;
2019/06/15 01:34:49;;;;;;;13.8;5.4;;;;;;;20.53;60.04297;933.4327;;;;
2019/06/15 01:37:20;;;;;;;17.2;5.5;;;;;;;20.44;60.83594;933.4456;;;;
2019/06/15 01:39:52;;;;;;;16.3;5.5;;;;;;;20.38;60.93262;933.2686;;;;
2019/06/15 01:42:22;;;;;;;18.5;5.8;;;;;;;20.46;60.80469;933.313;;;;
2019/06/15 01:44:53;;;;;;;18.7;5.5;;;;;;;20.57;60.63281;933.2498;;;;
2019/06/15 01:47:25;;;;;;;15.3;5.6;;;;;;;20.48;61.22656;933.2422;;;;
2019/06/15 01:49:54;;;;;;;15.2;5.4;;;;;;;20.53;61.22266;933.2564;;;;
2019/06/15 01:56:13;;;;;;;17.5;6.1;;;;;;;20.36;62.66992;933.0856;;;;
2019/06/15 01:58:41;;;;;;;17.9;5.6;;;;;;;20.43;61.66309;933.2148;;;;
2019/06/15 02:01:07;;;;;;;16.5;5.8;;;;;;;20.07;61.70703;933.243;;;;
2019/06/15 02:03:37;;;;;;;18.7;5.2;;;;;;;19.79;60.66504;933.282;;;;
2019/06/15 02:06:03;;;;;;;13.5;4.8;;;;;;;19.58;62.26758;933.2419;;;;
2019/06/15 02:08:35;;;;;;;16.2;5;;;;;;;19.8;59.55957;933.1764;;;;
2019/06/15 02:11:05;;;;;;;17.3;4.9;;;;;;;19.87;59.56836;933.2109;;;;
2019/06/15 02:13:39;;;;;;;20.6;5.5;;;;;;;19.13;62.83398;933.2128;;;;
2019/06/15 02:16:02;;;;;;;19.2;5.9;;;;;;;19.2;62.49512;933.2112;;;;
2019/06/15 02:18:36;;;;;;;15;5.3;;;;;;;19;63.23438;933.2213;;;;
2019/06/15 02:20:57;;;;;;;15.9;5.5;;;;;;;19.18;63.42285;933.2879;;;;
2019/06/15 02:23:22;;;;;;;16.6;5.4;;;;;;;19.37;62.18066;933.2181;;;;
2019/06/15 02:25:55;;;;;;;16.3;5.5;;;;;;;19.26;61.72168;933.3244;;;;
2019/06/15 02:28:22;;;;;;;17.1;5.3;;;;;;;18.75;63.67578;933.3198;;;;
2019/06/15 02:30:50;;;;;;;17.7;5.5;;;;;;;19.14;63.26563;933.2881;;;;
2019/06/15 02:33:21;;;;;;;16.2;5.2;;;;;;;19.39;61.86914;933.3582;;;;
2019/06/15 02:35:49;;;;;;;14.7;5.1;;;;;;;19.25;61.67383;933.3861;;;;
2019/06/15 02:38:14;;;;;;;17.2;5.8;;;;;;;19.18;62.37402;933.3654;;;;
2019/06/15 02:40:40;;;;;;;16.1;5.2;;;;;;;19.26;62.62012;933.4575;;;;
2019/06/15 02:43:06;;;;;;;15.2;5.3;;;;;;;19.29;62.65918;933.5656;;;;
2019/06/15 02:45:34;;;;;;;16.8;5.5;;;;;;;19.52;61.43359;933.5681;;;;
2019/06/15 02:48:09;;;;;;;15.7;5.2;;;;;;;19.32;61.55566;933.635;;;;
2019/06/15 02:50:33;;;;;;;15.7;5;;;;;;;19.11;61.64355;933.6589;;;;
2019/06/15 02:53:05;;;;;;;17;5.5;;;;;;;19.03;62.07422;933.6047;;;;
2019/06/15 02:55:34;;;;;;;17.4;5.4;;;;;;;19.37;61.82031;933.6058;;;;
2019/06/15 02:57:58;;;;;;;17.1;5.2;;;;;;;19.4;61.5791;933.6542;;;;
2019/06/15 03:00:30;;;;;;;17;5.1;;;;;;;19.47;61.54102;933.7097;;;;
2019/06/15 03:03:06;;;;;;;16.8;5.5;;;;;;;19.42;61.25488;933.5817;;;;
2019/06/15 03:05:38;;;;;;;13.4;5.1;;;;;;;19.35;60.75586;933.7302;;;;
2019/06/15 03:08:09;;;;;;;15.3;5.4;;;;;;;19.21;61.02734;933.7964;;;;
2019/06/15 03:10:39;;;;;;;16.3;5.3;;;;;;;19;61.46387;933.7595;;;;
2019/06/15 03:13:08;;;;;;;16;5.5;;;;;;;18.77;62.2832;933.7942;;;;
2019/06/15 03:15:41;;;;;;;16.6;5.4;;;;;;;18.87;62.59863;933.8248;;;;
2019/06/15 03:18:14;;;;;;;16;5;;;;;;;19.03;61.92285;933.7905;;;;
2019/06/15 03:20:48;;;;;;;16;5.1;;;;;;;19.21;61.85547;933.8728;;;;
2019/06/15 03:23:14;;;;;;;13.2;4.7;;;;;;;19.03;62.42285;933.8898;;;;
2019/06/15 03:25:52;;;;;;;16.2;5.5;;;;;;;19.05;62.51953;933.9423;;;;
2019/06/15 03:28:22;;;;;;;14.8;5.2;;;;;;;18.89;61.57715;934.0323;;;;
2019/06/15 03:30:43;;;;;;;12.5;4.5;;;;;;;18.37;62.49316;933.9855;;;;
2019/06/15 03:33:09;;;;;;;16.5;4.8;;;;;;;18.36;62.43359;933.9647;;;;
2019/06/15 03:35:47;;;;;;;13.5;4.6;;;;;;;18.54;63.55078;934.0875;;;;
2019/06/15 03:43:48;;;;;;;14.6;5.4;;;;;;;18.51;63.31445;934.1135;;;;
2019/06/15 03:46:16;;;;;;;18.5;5.8;;;;;;;18.43;63.72168;934.1802;;;;
2019/06/15 03:48:44;;;;;;;16.2;5.2;;;;;;;18.45;63.04004;934.1721;;;;
2019/06/15 03:51:10;;;;;;;18.7;4.9;;;;;;;18.43;60.81543;934.1494;;;;
2019/06/15 03:53:42;;;;;;;14.2;4.8;;;;;;;18.57;61.70605;934.1658;;;;
2019/06/15 03:56:11;;;;;;;13.4;4.4;;;;;;;18.69;61.24707;934.1411;;;;
2019/06/15 03:58:43;;;;;;;16.4;4.8;;;;;;;18.84;62.11719;934.1686;;;;
2019/06/15 04:02:43;;;;;;;14.9;5.1;;;;;;;18.65;62.50977;934.3488;;;;
2019/06/15 04:05:26;;;;;;;16.4;5;;;;;;;18.68;62.22363;934.4429;;;;
2019/06/15 04:07:46;;;;;;;15.4;4.7;;;;;;;18.64;62.56543;934.4361;;;;
2019/06/15 04:10:22;;;;;;;16.2;4.8;;;;;;;18.63;61.77344;934.4292;;;;
2019/06/15 04:12:46;;;;;;;16.7;5;;;;;;;18.5;62.25488;934.4716;;;;
2019/06/15 04:15:15;;;;;;;15.8;4.9;;;;;;;18.51;63.00195;934.4736;;;;
2019/06/15 04:17:46;;;;;;;16.8;4.7;;;;;;;18.16;62.69531;934.4172;;;;
2019/06/15 04:20:13;;;;;;;16.6;4.8;;;;;;;18.2;63.01465;934.4717;;;;
2019/06/15 04:22:42;;;;;;;17.5;5.5;;;;;;;18.34;64.51172;934.5303;;;;
2019/06/15 04:25:16;;;;;;;20.1;5.2;;;;;;;18.32;63.16016;934.5383;;;;
2019/06/15 04:27:51;;;;;;;18.9;5.2;;;;;;;18.44;62.88574;934.5442;;;;
2019/06/15 04:30:21;;;;;;;15.1;5;;;;;;;18.47;62.41406;934.5094;;;;
2019/06/15 04:32:46;;;;;;;12.4;4.8;;;;;;;18.3;61.87891;934.5234;;;;
2019/06/15 04:35:21;;;;;;;16.9;4.6;;;;;;;18.55;62.32227;934.537;;;;
2019/06/15 04:37:51;;;;;;;15.2;4.8;;;;;;;18.65;63.24219;934.6584;;;;
2019/06/15 04:40:14;;;;;;;18.4;4.6;;;;;;;18.59;61.20996;934.5667;;;;
2019/06/15 04:42:47;;;;;;;16.6;4.6;;;;;;;18.44;62.29395;934.5909;;;;
2019/06/15 04:45:09;;;;;;;15.4;4.8;;;;;;;18.49;61.90625;934.7;;;;
2019/06/15 04:47:53;;;;;;;14.5;4.5;;;;;;;18.6;62.62988;934.652;;;;
2019/06/15 04:50:14;;;;;;;14.6;4.9;;;;;;;18.78;61.1084;934.7017;;;;
2019/06/15 04:52:47;;;;;;;20.4;5.1;;;;;;;18.94;60.93262;934.7064;;;;
2019/06/15 04:55:13;;;;;;;14.4;4.5;;;;;;;19.19;60.52441;934.7463;;;;
2019/06/15 04:57:40;;;;;;;18;4.9;;;;;;;19.29;61.13281;934.6725;;;;
2019/06/15 05:00:04;;;;;;;15.3;4.7;;;;;;;19.47;61.05273;934.7771;;;;
2019/06/15 05:02:31;;;;;;;15.6;4.9;;;;;;;19.77;59.37988;934.7022;;;;
2019/06/15 05:05:00;;;;;;;16.5;4.6;;;;;;;20.43;57.61328;934.702;;;;
2019/06/15 05:07:33;;;;;;;19.3;4.3;;;;;;;21.12;53.96973;934.6574;;;;
2019/06/15 05:10:10;;;;;;;17.3;4.4;;;;;;;21.72;53.3291;934.6494;;;;
2019/06/15 05:12:33;;;;;;;14.4;4.4;;;;;;;22.33;51.2666;934.6479;;;;
2019/06/15 05:14:59;;;;;;;13.5;4;;;;;;;22.91;50.16016;934.6314;;;;
2019/06/15 05:17:28;;;;;;;14.6;4.4;;;;;;;23.37;48.57813;934.5978;;;;
2019/06/15 05:19:56;;;;;;;15.1;4.5;;;;;;;23.89;50.17578;934.6573;;;;
2019/06/15 05:22:27;;;;;;;17.1;4.4;;;;;;;24.5;49.30273;934.6156;;;;
2019/06/15 05:24:56;;;;;;;18.7;4.5;;;;;;;24.83;46.4248;934.6987;;;;
2019/06/15 05:27:23;;;;;;;12.2;4.2;;;;;;;25.47;46.73926;934.7111;;;;
2019/06/15 05:29:47;;;;;;;15.6;4.2;;;;;;;25.72;41.9668;934.6763;;;;
2019/06/15 05:32:14;;;;;;;15.9;4.1;;;;;;;25.53;41.73633;934.7195;;;;
2019/06/15 05:34:42;;;;;;;21.2;4.7;;;;;;;25.66;45.29395;934.6638;;;;
2019/06/15 05:37:19;;;;;;;14.3;4.4;;;;;;;26.29;40.94434;934.6884;;;;
2019/06/15 05:39:51;;;;;;;16.1;4.4;;;;;;;26.16;44.76465;934.6702;;;;
2019/06/15 05:42:17;;;;;;;16.7;3.9;;;;;;;26.64;39.85059;934.6797;;;;
2019/06/15 05:44:44;;;;;;;17.9;4;;;;;;;26.91;39.36523;934.6919;;;;
2019/06/15 05:47:15;;;;;;;13.8;3.5;;;;;;;27.06;39.69824;934.7153;;;;
2019/06/15 05:49:40;;;;;;;16.6;4.5;;;;;;;27.1;39.63086;934.6161;;;;
2019/06/15 05:52:17;;;;;;;13;3.7;;;;;;;27.63;39.57031;934.6683;;;;
2019/06/15 05:54:45;;;;;;;16.7;3.8;;;;;;;27.33;37.18359;934.6604;;;;
2019/06/15 05:57:14;;;;;;;16.6;3.9;;;;;;;26.8;37.55566;934.6127;;;;
2019/06/15 06:00:06;;;;;;;15.7;3.7;;;;;;;26.78;37.28027;934.6386;;;;
2019/06/15 06:02:34;;;;;;;19.4;4.1;;;;;;;27.22;37.36523;934.6179;;;;
2019/06/15 06:05:00;;;;;;;20.1;4.3;;;;;;;27.9;41.15039;934.6967;;;;
2019/06/15 06:07:26;;;;;;;17.9;4.3;;;;;;;28.66;41.25488;934.7332;;;;
2019/06/15 06:09:54;;;;;;;13.3;3.7;;;;;;;29.38;36.16211;934.5992;;;;
2019/06/15 06:12:21;;;;;;;13.5;3.6;;;;;;;29.93;35.90918;934.685;;;;
2019/06/15 06:14:57;;;;;;;18.3;3.7;;;;;;;29.79;36.89941;934.7935;;;;
2019/06/15 06:17:27;;;;;;;17.5;4.1;;;;;;;30.65;34.56738;934.8635;;;;
2019/06/15 06:20:05;;;;;;;13.5;3.8;;;;;;;31.17;35.43262;935.0366;;;;
2019/06/15 06:22:33;;;;;;;19.7;4.1;;;;;;;31.24;37.23242;935.0994;;;;
2019/06/15 06:25:05;;;;;;;18.2;4.3;;;;;;;32.22;33.94336;935.1206;;;;
2019/06/15 06:27:37;;;;;;;18.9;4.5;;;;;;;31.89;33.25977;935.0158;;;;
2019/06/15 06:30:10;;;;;;;19;4.6;;;;;;;32.01;34.27539;935.0813;;;;
2019/06/15 06:32:39;;;;;;;16.8;3.8;;;;;;;32.31;30.2207;935.0419;;;;
2019/06/15 06:35:14;;;;;;;21;4.2;;;;;;;32.62;30.33789;935.0675;;;;
2019/06/15 06:37:50;;;;;;;18.6;4.6;;;;;;;32.31;27.9541;934.9233;;;;
2019/06/15 06:40:22;;;;;;;16.2;4.2;;;;;;;31.84;31.86719;935.0508;;;;
2019/06/15 06:42:50;;;;;;;17.7;4.1;;;;;;;32.61;30.00098;934.9821;;;;
2019/06/15 06:45:16;;;;;;;17.5;4.3;;;;;;;33.08;30.78906;935.0513;;;;
2019/06/15 06:47:47;;;;;;;21.9;4.5;;;;;;;33.61;28.34766;934.998;;;;
2019/06/15 06:50:19;;;;;;;20.3;4.2;;;;;;;34.4;28.20313;935.0123;;;;
2019/06/15 06:52:45;;;;;;;21.3;4.2;;;;;;;33.62;27.78223;935.0151;;;;
2019/06/15 06:55:09;;;;;;;20.8;4.2;;;;;;;34.43;27.2168;934.9892;;;;
2019/06/15 06:57:37;;;;;;;16.3;4;;;;;;;35.03;26.60156;934.9911;;;;
2019/06/15 07:00:12;;;;;;;22.7;5.2;;;;;;;34.5;30.125;935.0381;;;;
2019/06/15 07:02:34;;;;;;;22.8;4.4;;;;;;;34.97;28.98633;934.9847;;;;
2019/06/15 07:05:10;;;;;;;15.8;3.9;;;;;;;34.63;26.56641;935.0389;;;;
2019/06/15 07:07:43;;;;;;;17.8;4.1;;;;;;;35.57;25.35254;935.0633;;;;
2019/06/15 07:10:15;;;;;;;16.5;4.1;;;;;;;35.58;25.77637;935.0617;;;;
2019/06/15 07:12:38;;;;;;;22.2;4.3;;;;;;;36.1;25.9873;935.0845;;;;
2019/06/15 07:15:10;;;;;;;19;4.2;;;;;;;35.06;27.2793;935.0952;;;;
2019/06/15 07:17:40;;;;;;;21.1;3.9;;;;;;;35.2;27.06934;935.2001;;;;
2019/06/15 07:20:17;;;;;;;29.5;4.3;;;;;;;34.96;27.15234;935.1412;;;;
2019/06/15 07:22:50;;;;;;;19.7;3.6;;;;;;;35.19;26.99707;935.2188;;;;
2019/06/15 07:25:23;;;;;;;14.5;3.4;;;;;;;35.61;27.10645;935.2014;;;;
2019/06/15 07:27:53;;;;;;;12.3;3.7;;;;;;;35.42;26.57617;935.2568;;;;
2019/06/15 07:30:31;;;;;;;23.9;3.7;;;;;;;35.48;26.9541;935.2183;;;;
2019/06/15 07:32:54;;;;;;;15.2;3.4;;;;;;;35.6;27.1543;935.2443;;;;
2019/06/15 07:35:20;;;;;;;21.6;3.7;;;;;;;35.15;27.62207;935.2413;;;;
2019/06/15 07:37:53;;;;;;;18.9;3.4;;;;;;;34.97;27.43066;935.2853;;;;
2019/06/15 07:40:25;;;;;;;21.7;3.8;;;;;;;34.76;27.73145;935.3879;;;;
2019/06/15 07:42:56;;;;;;;16.3;3.6;;;;;;;34.58;28.1543;935.3695;;;;
2019/06/15 07:45:32;;;;;;;39.7;7.8;;;;;;;34.58;28.38281;935.5019;;;;
2019/06/15 07:47:55;;;;;;;69.4;17.3;;;;;;;34.57;28.57617;935.5656;;;;
2019/06/15 07:50:29;;;;;;;56.6;15.3;;;;;;;34.44;29.375;935.4682;;;;
2019/06/15 07:53:00;;;;;;;46.4;12.5;;;;;;;34.38;28.86523;935.5367;;;;
2019/06/15 07:55:22;;;;;;;48.5;13.5;;;;;;;34.27;28.41211;935.5496;;;;
2019/06/15 07:57:55;;;;;;;37.8;9.1;;;;;;;34.25;28.66406;935.6281;;;;
2019/06/15 08:00:18;;;;;;;30.1;7.6;;;;;;;34.55;28.11621;935.5873;;;;
2019/06/15 08:02:45;;;;;;;22;6.5;;;;;;;34.78;28.5166;935.5875;;;;
2019/06/15 08:05:22;;;;;;;19.1;5.7;;;;;;;34.94;28.2002;935.5656;;;;
2019/06/15 08:07:48;;;;;;;16.4;4.1;;;;;;;34.61;29.13184;935.6562;;;;
2019/06/15 08:10:21;;;;;;;21.7;4.2;;;;;;;32.72;31.86816;935.6217;;;;
2019/06/15 08:12:53;;;;;;;20.3;4.5;;;;;;;33.34;31.39453;935.7338;;;;
2019/06/15 08:15:27;;;;;;;17.6;3.8;;;;;;;32.78;31.44043;935.8081;;;;
2019/06/15 08:18:12;;;;;;;17.8;3.7;;;;;;;32.29;32.51074;935.7227;;;;
2019/06/15 08:20:36;;;;;;;20.7;3.5;;;;;;;32.01;32.92188;935.8049;;;;
2019/06/15 08:22:56;;;;;;;16.2;3.6;;;;;;;32.26;33.29883;935.9484;;;;
2019/06/15 08:25:25;;;;;;;12;3.5;;;;;;;32.51;32.92188;935.9598;;;;
2019/06/15 08:28:09;;;;;;;13.9;2.9;;;;;;;32.84;32.59766;935.9025;;;;
2019/06/15 08:30:49;;;;;;;9.9;2.8;;;;;;;33.48;31.54883;936.0458;;;;
2019/06/15 08:33:14;;;;;;;9.8;2.8;;;;;;;33.93;29.83496;936.0881;;;;
2019/06/15 08:35:38;;;;;;;11.6;2.8;;;;;;;33.95;30.71582;936.0783;;;;
2019/06/15 08:43:53;;;;;;;12;2.4;;;;;;;32.49;32.72852;936.1396;;;;
2019/06/15 08:46:23;;;;;;;13.7;2.7;;;;;;;32.7;31.05078;936.1696;;;;
2019/06/15 08:49:03;;;;;;;15;2.6;;;;;;;32.03;31.9043;936.1091;;;;
2019/06/15 08:51:40;;;;;;;12;2.3;;;;;;;31.49;33.15918;936.1121;;;;
2019/06/15 08:54:05;;;;;;;7.3;2.2;;;;;;;31.64;33.44629;936.1898;;;;
2019/06/15 08:56:41;;;;;;;10.8;2.6;;;;;;;31.51;33.87793;936.2581;;;;
2019/06/15 08:59:12;;;;;;;10;2.2;;;;;;;31.35;33.26855;936.2647;;;;
2019/06/15 09:01:49;;;;;;;10.8;2.5;;;;;;;31.48;33.46973;936.3677;;;;
2019/06/15 09:04:20;;;;;;;8.2;2;;;;;;;31.36;33.55664;936.2449;;;;
2019/06/15 09:06:56;;;;;;;11;2.4;;;;;;;31.06;33.90527;936.3169;;;;
2019/06/15 09:09:27;;;;;;;8.4;2.4;;;;;;;30.8;34.00488;936.3106;;;;
2019/06/15 09:11:54;;;;;;;13.9;2.4;;;;;;;30.43;35.33887;936.315;;;;
2019/06/15 09:14:20;;;;;;;14;2.4;;;;;;;30.45;35.76953;936.356;;;;
2019/06/15 09:17:04;;;;;;;12.8;2.2;;;;;;;30.68;35.28613;936.3444;;;;
2019/06/15 09:19:33;;;;;;;9;2.3;;;;;;;30.73;35.39844;936.3703;;;;
2019/06/15 09:22:07;;;;;;;20.2;2.1;;;;;;;30.37;35.66797;936.2339;;;;
2019/06/15 09:24:42;;;;;;;10.8;2.2;;;;;;;30.04;35.67871;936.4575;;;;
2019/06/15 09:27:14;;;;;;;10.1;2.1;;;;;;;29.63;36.98145;936.4763;;;;
2019/06/15 09:29:48;;;;;;;11.2;2.5;;;;;;;29.44;36.32129;936.4358;;;;
2019/06/15 09:32:26;;;;;;;11.8;2.2;;;;;;;29.16;37.75293;936.4042;;;;
2019/06/15 09:35:03;;;;;;;10.6;2.3;;;;;;;29.07;38.75684;936.4503;;;;
2019/06/15 09:37:37;;;;;;;10.6;2;;;;;;;29.05;38.35059;936.4581;;;;
2019/06/15 09:40:09;;;;;;;11.1;2.5;;;;;;;28.91;40.40918;936.4606;;;;
2019/06/15 09:42:42;;;;;;;9.5;2.2;;;;;;;28.65;38.86328;936.4835;;;;
2019/06/15 09:45:05;;;;;;;12.4;2.5;;;;;;;28.66;40.375;936.4771;;;;
2019/06/15 09:47:36;;;;;;;12.7;2.4;;;;;;;28.49;39.58789;936.4489;;;;
2019/06/15 09:50:09;;;;;;;10.2;2;;;;;;;28.3;40.28418;936.4667;;;;
2019/06/15 09:52:45;;;;;;;10.4;2.3;;;;;;;28.23;39.125;936.6141;;;;
2019/06/15 09:55:16;;;;;;;8.3;2.1;;;;;;;28.39;39.30469;936.5442;;;;
2019/06/15 09:57:47;;;;;;;12.4;2.1;;;;;;;28.51;39.49414;936.5932;;;;
2019/06/15 10:00:23;;;;;;;10.7;2.5;;;;;;;28.55;38.97461;936.5644;;;;
2019/06/15 10:02:53;;;;;;;10.3;2;;;;;;;28.5;39.96777;936.5525;;;;
2019/06/15 10:05:18;;;;;;;10.1;1.9;;;;;;;28.22;40.19336;936.6506;;;;
2019/06/15 10:07:53;;;;;;;9.3;2.2;;;;;;;28.14;40.3291;936.6465;;;;
2019/06/15 10:10:26;;;;;;;7.1;1.8;;;;;;;28.41;41.53027;936.632;;;;
2019/06/15 10:13:03;;;;;;;5.7;1.7;;;;;;;28.55;40.85352;936.6693;;;;
2019/06/15 10:15:28;;;;;;;6.5;1.8;;;;;;;28.81;40.43652;936.6515;;;;
2019/06/15 10:18:03;;;;;;;6.5;1.6;;;;;;;28.85;39.52344;936.6976;;;;
2019/06/15 10:20:36;;;;;;;7.4;1.6;;;;;;;28.7;39.98535;936.7628;;;;
2019/06/15 10:23:09;;;;;;;6.4;1.7;;;;;;;28.05;41.41309;936.6672;;;;
2019/06/15 10:25:36;;;;;;;7.8;1.6;;;;;;;28.19;42.25879;936.7292;;;;
2019/06/15 10:28:02;;;;;;;8.3;2;;;;;;;28.08;41.47656;936.7615;;;;
2019/06/15 10:30:27;;;;;;;7.5;1.7;;;;;;;27.78;41.45996;936.803;;;;
2019/06/15 10:32:57;;;;;;;7.3;1.9;;;;;;;27.65;41.81641;936.8456;;;;
2019/06/15 10:35:26;;;;;;;11.7;2.3;;;;;;;27.83;43.12695;936.7076;;;;
2019/06/15 10:37:54;;;;;;;9.3;1.7;;;;;;;27.91;41.00879;936.7816;;;;
2019/06/15 10:40:21;;;;;;;7;1.7;;;;;;;27.77;41.39941;936.8134;;;;
2019/06/15 10:42:53;;;;;;;8.5;2.2;;;;;;;27.67;43.02832;936.8208;;;;
2019/06/15 10:45:29;;;;;;;17.6;3.4;;;;;;;27.6;43.25879;936.8317;;;;
2019/06/15 10:47:55;;;;;;;6.1;1.7;;;;;;;27.7;42.6875;936.8472;;;;
2019/06/15 10:50:39;;;;;;;8.3;2;;;;;;;27.42;43.57422;936.7701;;;;
2019/06/15 10:53:10;;;;;;;10;2.2;;;;;;;27.22;44.59863;936.6809;;;;
2019/06/15 10:55:35;;;;;;;7.6;2.1;;;;;;;27;44.69434;936.8176;;;;
2019/06/15 10:58:25;;;;;;;11.2;4.4;;;;;;;26.92;44.56836;936.9031;;;;
2019/06/15 11:01:02;;;;;;;7.9;2;;;;;;;26.99;44.13672;936.9102;;;;
2019/06/15 11:03:35;;;;;;;9.9;1.7;;;;;;;26.97;44.72754;936.8525;;;;
2019/06/15 11:06:01;;;;;;;8.4;2;;;;;;;27;45.31055;936.73;;;;
2019/06/15 11:08:26;;;;;;;8.2;1.9;;;;;;;27.48;44.59961;936.8964;;;;
2019/06/15 11:10:59;;;;;;;12;1.9;;;;;;;27.52;43.70215;936.8063;;;;
2019/06/15 11:13:27;;;;;;;5.5;1.8;;;;;;;27.62;43.92676;936.8723;;;;
2019/06/15 11:15:56;;;;;;;8.4;2;;;;;;;27.46;43.48242;936.8819;;;;
2019/06/15 11:18:31;;;;;;;8.4;1.9;;;;;;;27.78;43.90625;936.9078;;;;
2019/06/15 11:21:01;;;;;;;8.2;1.9;;;;;;;27.66;42.00586;936.7972;;;;
2019/06/15 11:23:37;;;;;;;10.3;1.9;;;;;;;27.85;43.73438;936.8691;;;;
2019/06/15 11:31:15;;;;;;;5.6;1.6;;;;;;;28.19;42.4834;936.8039;;;;
2019/06/15 11:37:21;;;;;;;6;1.5;;;;;;;28.64;41.14648;936.7339;;;;
2019/06/15 11:39:57;;;;;;;15.3;1.8;;;;;;;28.82;40.69922;936.7642;;;;
2019/06/15 11:45:33;;;;;;;8.4;1.8;;;;;;;28.45;40.68945;936.8488;;;;
2019/06/15 11:48:14;;;;;;;7.7;1.6;;;;;;;28.13;42.13379;936.7316;;;;
2019/06/15 11:50:38;;;;;;;9;2.3;;;;;;;27.94;42.00977;936.7975;;;;
2019/06/15 11:53:19;;;;;;;6.7;2;;;;;;;28;43.04883;936.8396;;;;
2019/06/15 11:55:48;;;;;;;8.5;2;;;;;;;27.81;43.00586;936.8019;;;;
2019/06/15 11:58:13;;;;;;;6.5;1.8;;;;;;;27.62;43.03613;936.7715;;;;
2019/06/15 12:00:47;;;;;;;7.7;1.7;;;;;;;27.38;42.34863;936.728;;;;
2019/06/15 12:03:17;;;;;;;10;2;;;;;;;27.42;44.4043;936.8225;;;;
2019/06/15 12:05:44;;;;;;;6.6;1.6;;;;;;;27.48;44.26758;936.7825;;;;
2019/06/15 12:08:17;;;;;;;7.8;1.5;;;;;;;27.57;43.32813;936.855;;;;
2019/06/15 12:10:38;;;;;;;9.7;1.7;;;;;;;27.53;42.93262;936.8169;;;;
2019/06/15 12:13:10;;;;;;;6.5;1.5;;;;;;;27.43;43.11328;936.8987;;;;
2019/06/15 12:15:36;;;;;;;5.8;1.4;;;;;;;27.37;43.75977;936.9046;;;;
2019/06/15 12:18:19;;;;;;;5.6;1.5;;;;;;;27.26;44.49512;936.9758;;;;
2019/06/15 12:20:33;;;;;;;6.6;1.3;;;;;;;26.99;42.85645;936.8578;;;;
2019/06/15 12:23:09;;;;;;;6.8;1.4;;;;;;;26.81;43.87012;936.9606;;;;
2019/06/15 12:25:28;;;;;;;5.7;1.4;;;;;;;26.66;45.08789;936.9202;;;;
2019/06/15 12:28:00;;;;;;;7.1;1.6;;;;;;;26.53;44.74219;936.9839;;;;
2019/06/15 12:30:24;;;;;;;5.7;1.3;;;;;;;26.42;45.93848;937.0804;;;;
2019/06/15 12:32:55;;;;;;;8.7;1.6;;;;;;;26.37;45.59082;937.0265;;;;
2019/06/15 12:35:28;;;;;;;5.8;1.5;;;;;;;26.17;45.29883;937.0538;;;;
2019/06/15 12:37:57;;;;;;;7.4;1.7;;;;;;;26.13;46.45215;937.035;;;;
2019/06/15 12:40:29;;;;;;;7.8;1.6;;;;;;;25.9;46.34668;937.0881;;;;
2019/06/15 12:42:55;;;;;;;9.6;1.6;;;;;;;26.01;47.0332;937.0569;;;;
2019/06/15 12:45:21;;;;;;;3.6;1.4;;;;;;;26.08;46.02344;937.0894;;;;
2019/06/15 12:47:49;;;;;;;4.5;1.5;;;;;;;26;46.34473;937.1546;;;;
2019/06/15 12:50:21;;;;;;;4.7;1.7;;;;;;;26.14;46.75;937.1291;;;;
2019/06/15 12:52:59;;;;;;;7;1.5;;;;;;;26.19;46.16406;937.1376;;;;
2019/06/15 12:55:31;;;;;;;4.3;1.6;;;;;;;26.08;46.56738;937.0633;;;;
2019/06/15 12:58:03;;;;;;;8.5;1.6;;;;;;;26.05;46.37402;937.1085;;;;
2019/06/15 13:00:28;;;;;;;6.6;1.7;;;;;;;25.93;46.19629;937.1577;;;;
2019/06/15 13:02:57;;;;;;;6.6;1.7;;;;;;;25.9;46.6416;937.1103;;;;
2019/06/15 13:05:27;;;;;;;9.7;2;;;;;;;25.84;46.1875;937.1188;;;;
2019/06/15 13:07:59;;;;;;;6.1;1.6;;;;;;;25.88;47.04199;937.1701;;;;
2019/06/15 13:10:29;;;;;;;8.6;2;;;;;;;25.87;46.26074;937.1543;;;;
2019/06/15 13:13:14;;;;;;;5.3;1.8;;;;;;;25.75;46.62695;937.1852;;;;
2019/06/15 13:15:39;;;;;;;7.8;1.6;;;;;;;25.5;46.86133;937.1891;;;;
2019/06/15 13:18:16;;;;;;;7.1;1.6;;;;;;;25.53;47.02832;937.1594;;;;
2019/06/15 13:20:49;;;;;;;12.3;2.1;;;;;;;25.43;47.71484;937.1877;;;;
2019/06/15 13:23:08;;;;;;;6.6;1.8;;;;;;;25.38;47.43945;937.1817;;;;
2019/06/15 13:25:36;;;;;;;9.7;2;;;;;;;25.36;46.3623;937.1763;;;;
2019/06/15 13:28:04;;;;;;;9.3;2.2;;;;;;;25.4;47.35742;937.2094;;;;
2019/06/15 13:30:31;;;;;;;6.3;2;;;;;;;25.46;46.99805;937.2172;;;;
2019/06/15 13:33:04;;;;;;;5;1.5;;;;;;;25.51;47.39355;937.2491;;;;
2019/06/15 13:35:30;;;;;;;5.4;1.6;;;;;;;25.48;48.45313;937.28;;;;
2019/06/15 13:37:58;;;;;;;6.8;1.6;;;;;;;25.37;48.14648;937.3315;;;;
2019/06/15 13:40:31;;;;;;;23.4;2.5;;;;;;;25.35;48.65137;937.296;;;;
2019/06/15 13:43:03;;;;;;;21.8;2.3;;;;;;;25.2;47.87988;937.3535;;;;
2019/06/15 13:45:34;;;;;;;6.2;1.8;;;;;;;25.08;47.78516;937.3894;;;;
2019/06/15 13:48:01;;;;;;;6.7;1.5;;;;;;;24.84;48.63184;937.3692;;;;
2019/06/15 13:50:32;;;;;;;7.8;1.8;;;;;;;24.72;49.19629;937.3135;;;;
2019/06/15 13:52:50;;;;;;;8.6;1.9;;;;;;;24.64;48.91699;937.3603;;;;
2019/06/15 13:55:16;;;;;;;5.9;1.7;;;;;;;24.44;49.33105;937.3864;;;;
2019/06/15 13:57:44;;;;;;;9.2;2;;;;;;;24.51;49.77441;937.3669;;;;
2019/06/15 14:00:08;;;;;;;9.9;1.8;;;;;;;24.48;49.62988;937.2452;;;;
2019/06/15 14:02:35;;;;;;;9.4;1.8;;;;;;;24.57;49.14453;937.3105;;;;
2019/06/15 14:05:17;;;;;;;7;1.8;;;;;;;24.6;49.66699;937.2486;;;;
2019/06/15 14:07:51;;;;;;;6.9;1.8;;;;;;;24.53;49.32813;937.2863;;;;
2019/06/15 14:10:15;;;;;;;8.5;1.9;;;;;;;24.41;49.63379;937.2826;;;;
2019/06/15 14:12:36;;;;;;;6.8;2;;;;;;;24.43;50.28418;937.3406;;;;
2019/06/15 14:14:59;;;;;;;8.1;1.7;;;;;;;24.42;49.97559;937.2894;;;;
2019/06/15 14:17:25;;;;;;;5.6;1.5;;;;;;;24.36;49.40527;937.3026;;;;
2019/06/15 14:20:00;;;;;;;8.9;1.7;;;;;;;24.34;49.19043;937.3281;;;;
2019/06/15 14:22:37;;;;;;;7;1.7;;;;;;;24.31;48.31543;937.3367;;;;
2019/06/15 14:25:00;;;;;;;6.8;1.8;;;;;;;24.34;49.02539;937.3021;;;;
2019/06/15 14:27:26;;;;;;;9;1.7;;;;;;;24.25;49.83984;937.2755;;;;
2019/06/15 14:29:57;;;;;;;6.2;1.7;;;;;;;24.24;50.47461;937.2375;;;;
2019/06/15 14:32:20;;;;;;;8.6;1.7;;;;;;;24.32;49.43555;937.2523;;;;
2019/06/15 14:34:44;;;;;;;5.5;1.5;;;;;;;24.34;49.1543;937.258;;;;
2019/06/15 14:37:44;;;;;;;5.4;1.6;;;;;;;24.3;49.60938;937.2688;;;;
2019/06/15 14:40:08;;;;;;;6.6;1.7;;;;;;;24.27;49.6416;937.3122;;;;
2019/06/15 14:42:46;;;;;;;6;1.6;;;;;;;24.24;49.5918;937.3038;;;;
2019/06/15 14:45:16;;;;;;;7;1.6;;;;;;;24.22;48.35156;937.298;;;;
2019/06/15 14:47:43;;;;;;;6.5;1.6;;;;;;;24.21;48.80957;937.4384;;;;
2019/06/15 14:50:11;;;;;;;6.3;2;;;;;;;24.19;49.97363;937.3234;;;;
2019/06/15 14:52:47;;;;;;;4.5;1.7;;;;;;;24.21;50.09375;937.3081;;;;
2019/06/15 14:55:12;;;;;;;6.4;1.7;;;;;;;24.21;50.24805;937.2159;;;;
2019/06/15 14:57:38;;;;;;;4.7;1.5;;;;;;;24.28;50.71484;937.293;;;;
2019/06/15 15:00:08;;;;;;;7.2;1.7;;;;;;;24.32;49.78809;937.2444;;;;
2019/06/15 15:02:41;;;;;;;6;1.8;;;;;;;24.36;49.87598;937.1502;;;;
2019/06/15 15:05:11;;;;;;;7.3;1.8;;;;;;;24.4;49.7041;937.1484;;;;